createdAt,value
2018-12-17T00:00:03.106Z,-0.1
2018-12-17T00:05:03.047Z,-0.1
2018-12-17T00:10:02.416Z,-0.1
2018-12-17T00:15:04.947Z,-0.1
2018-12-17T00:20:05.428Z,-0.1
2018-12-17T00:25:20.437Z,-0.1
2018-12-17T00:30:14.934Z,-0.1
2018-12-17T00:35:02.349Z,-0.1
2018-12-17T00:40:07.788Z,0
2018-12-17T00:45:02.616Z,0
2018-12-17T00:50:02.501Z,0
2018-12-17T00:55:30.225Z,0
2018-12-17T01:00:05.644Z,0
2018-12-17T01:05:10.571Z,0
2018-12-17T01:10:02.950Z,0
2018-12-17T01:15:05.305Z,0.1
2018-12-17T01:20:03.302Z,0.1
2018-12-17T01:25:08.262Z,0.1
2018-12-17T01:30:10.513Z,0.1
2018-12-17T01:35:02.790Z,0.1
2018-12-17T01:40:05.718Z,0.1
2018-12-17T01:45:05.617Z,0.1
2018-12-17T01:50:02.507Z,0.1
2018-12-17T01:55:07.482Z,0
2018-12-17T02:00:04.867Z,0
2018-12-17T02:05:08.244Z,0
2018-12-17T02:10:02.590Z,0
2018-12-17T02:15:02.523Z,0
2018-12-17T02:20:07.605Z,0.1
2018-12-17T02:25:04.963Z,0.1
2018-12-17T02:30:02.885Z,0
2018-12-17T02:35:05.366Z,0.1
2018-12-17T02:40:07.739Z,0
2018-12-17T02:45:02.587Z,0
2018-12-17T02:50:10.076Z,0
2018-12-17T02:55:04.993Z,0.1
2018-12-17T03:00:05.556Z,0.1
2018-12-17T03:05:07.961Z,0.1
2018-12-17T03:10:07.370Z,0.1
2018-12-17T03:15:08.282Z,0.1
2018-12-17T03:20:02.315Z,0.1
2018-12-17T03:25:08.243Z,0.1
2018-12-17T03:30:03.157Z,0.2
2018-12-17T03:35:03.143Z,0.2
2018-12-17T03:40:02.580Z,0.2
2018-12-17T03:45:02.414Z,0.2
2018-12-17T03:50:02.349Z,0.2
2018-12-17T03:55:05.707Z,0.2
2018-12-17T04:00:05.094Z,0.2
2018-12-17T04:05:02.378Z,0.2
2018-12-17T04:10:05.240Z,0.2
2018-12-17T04:15:12.780Z,0.2
2018-12-17T04:20:02.768Z,0.2
2018-12-17T04:25:07.734Z,0.2
2018-12-17T04:30:12.797Z,0.2
2018-12-17T04:35:15.198Z,0.2
2018-12-17T04:40:02.515Z,0.2
2018-12-17T04:45:04.962Z,0.2
2018-12-17T04:50:02.860Z,0.2
2018-12-17T04:55:02.773Z,0.3
2018-12-17T05:00:07.675Z,0.3
2018-12-17T05:05:05.014Z,0.3
2018-12-17T05:10:02.359Z,0.2
2018-12-17T05:15:03.816Z,0.2
2018-12-17T05:20:05.391Z,0.2
2018-12-17T05:25:23.077Z,0.2
2018-12-17T05:30:08.048Z,0.3
2018-12-17T05:35:05.416Z,0.3
2018-12-17T05:40:20.488Z,0.2
2018-12-17T05:45:02.574Z,0.2
2018-12-17T05:50:07.542Z,0.3
2018-12-17T05:55:04.925Z,0.3
2018-12-17T06:00:10.424Z,0.3
2018-12-17T06:05:05.314Z,0.3
2018-12-17T06:10:07.741Z,0.3
2018-12-17T06:15:07.632Z,0.4
2018-12-17T06:20:10.211Z,0.3
2018-12-17T06:25:02.437Z,0.3
2018-12-17T06:30:05.564Z,0.3
2018-12-17T06:35:05.433Z,0.4
2018-12-17T06:40:02.848Z,0.4
2018-12-17T06:45:02.741Z,0.4
2018-12-17T06:50:07.830Z,0.4
2018-12-17T06:55:05.886Z,0.4
2018-12-17T07:00:02.911Z,0.4
2018-12-17T07:05:07.810Z,0.4
2018-12-17T07:10:03.139Z,0.4
2018-12-17T07:15:03.006Z,0.4
2018-12-17T07:20:05.486Z,0.5
2018-12-17T07:25:07.910Z,0.5
2018-12-17T07:30:05.286Z,0.5
2018-12-17T07:35:20.623Z,0.6
2018-12-17T07:40:05.752Z,0.6
2018-12-17T07:45:05.558Z,0.6
2018-12-17T07:50:07.524Z,0.6
2018-12-17T07:55:20.043Z,0.7
2018-12-17T08:00:07.999Z,0.7
2018-12-17T08:05:05.373Z,0.8
2018-12-17T08:10:07.824Z,0.8
2018-12-17T08:15:02.646Z,0.8
2018-12-17T08:20:07.669Z,0.8
2018-12-17T08:25:10.029Z,0.9
2018-12-17T08:30:03.973Z,0.9
2018-12-17T08:35:05.279Z,0.9
2018-12-17T08:40:02.538Z,0.9
2018-12-17T08:45:05.001Z,1.1
2018-12-17T08:50:05.407Z,1.1
2018-12-17T08:55:07.841Z,1.2
2018-12-17T09:00:02.698Z,1.2
2018-12-17T09:05:05.156Z,1.3
2018-12-17T09:10:10.071Z,1.3
2018-12-17T09:15:20.044Z,1.3
2018-12-17T09:20:03.085Z,1.3
2018-12-17T09:25:02.927Z,1.4
2018-12-17T09:30:07.834Z,1.6
2018-12-17T09:35:02.655Z,1.6
2018-12-17T09:40:18.148Z,1.6
2018-12-17T09:45:02.895Z,1.6
2018-12-17T09:50:05.334Z,1.7
2018-12-17T09:55:05.228Z,1.7
2018-12-17T10:00:05.666Z,1.7
2018-12-17T10:05:10.043Z,1.7
2018-12-17T10:10:02.369Z,1.7
2018-12-17T10:15:10.772Z,1.7
2018-12-17T10:20:05.273Z,1.8
2018-12-17T10:25:12.680Z,1.8
2018-12-17T10:30:05.069Z,1.8
2018-12-17T10:35:04.934Z,1.9
2018-12-17T10:40:02.285Z,1.9
2018-12-17T10:45:31.071Z,2
2018-12-17T10:50:33.306Z,2
2018-12-17T11:00:03.146Z,2.1
2018-12-17T11:05:05.624Z,2.3
2018-12-17T11:10:02.917Z,2.2
2018-12-17T11:15:07.904Z,2.2
2018-12-17T11:20:05.401Z,2.4
2018-12-17T11:25:05.344Z,2.5
2018-12-17T11:30:05.828Z,2.5
2018-12-17T11:35:05.724Z,2.5
2018-12-17T11:40:08.176Z,2.6
2018-12-17T11:45:02.910Z,2.6
2018-12-17T11:50:02.799Z,2.6
2018-12-17T11:55:02.635Z,2.6
2018-12-17T12:00:17.797Z,2.7
2018-12-17T12:05:20.303Z,2.7
2018-12-17T12:10:02.619Z,2.7
2018-12-17T12:15:02.548Z,2.8
2018-12-17T12:20:02.648Z,2.8
2018-12-17T12:25:07.616Z,2.7
2018-12-17T12:30:02.823Z,2.7
2018-12-17T12:35:05.254Z,2.7
2018-12-17T12:40:02.958Z,2.7
2018-12-17T12:45:02.895Z,2.8
2018-12-17T12:50:02.738Z,2.8
2018-12-17T12:55:02.626Z,2.9
2018-12-17T13:00:10.064Z,2.9
2018-12-17T13:05:04.876Z,3
2018-12-17T13:10:03.247Z,3
2018-12-17T13:15:08.251Z,3.2
2018-12-17T13:20:05.767Z,3.3
2018-12-17T13:25:03.148Z,3.3
2018-12-17T13:30:08.124Z,3.4
2018-12-17T13:35:02.996Z,3.4
2018-12-17T13:40:05.803Z,3.7
2018-12-17T13:45:15.806Z,3.6
2018-12-17T13:50:15.360Z,3.5
2018-12-17T13:55:10.211Z,3.4
2018-12-17T14:00:05.683Z,3.4
2018-12-17T14:05:05.604Z,3.3
2018-12-17T14:10:05.433Z,3.2
2018-12-17T14:15:05.626Z,3.1
2018-12-17T14:20:02.623Z,3.1
2018-12-17T14:25:02.489Z,3.1
2018-12-17T14:30:04.908Z,3.1
2018-12-17T14:35:05.731Z,3.1
2018-12-17T14:40:08.146Z,3
2018-12-17T14:45:02.906Z,3.1
2018-12-17T14:50:02.767Z,3
2018-12-17T14:55:02.651Z,3
2018-12-17T15:00:02.537Z,3
2018-12-17T15:05:09.982Z,3
2018-12-17T15:10:02.398Z,3
2018-12-17T15:15:05.821Z,3
2018-12-17T15:20:02.808Z,3
2018-12-17T15:25:02.834Z,3.1
2018-12-17T15:30:05.434Z,3.1
2018-12-17T15:35:02.839Z,3.1
2018-12-17T15:40:03.207Z,3.1
2018-12-17T15:45:28.464Z,3.1
2018-12-17T15:50:02.358Z,3.1
2018-12-17T15:55:08.271Z,3.1
2018-12-17T16:00:13.302Z,3.1
2018-12-17T16:05:10.641Z,3.1
2018-12-17T16:10:03.034Z,3.1
2018-12-17T16:15:02.928Z,3.1
2018-12-17T16:20:02.968Z,3.1
2018-12-17T16:25:07.908Z,3.1
2018-12-17T16:30:07.863Z,3.1
2018-12-17T16:35:02.654Z,3.2
2018-12-17T16:40:02.986Z,3.2
2018-12-17T16:45:10.491Z,3.2
2018-12-17T16:50:10.003Z,3.2
2018-12-17T16:55:07.492Z,3.2
2018-12-17T17:00:07.414Z,3.2
2018-12-17T17:05:07.504Z,3.2
2018-12-17T17:10:02.848Z,3.2
2018-12-17T17:15:02.806Z,3.2
2018-12-17T17:20:02.816Z,3.2
2018-12-17T17:25:10.343Z,3.1
2018-12-17T17:30:05.813Z,3.2
2018-12-17T17:35:05.735Z,3.1
2018-12-17T17:40:08.130Z,3.1
2018-12-17T17:45:03.047Z,3.1
2018-12-17T17:50:02.968Z,3.1
2018-12-17T17:55:05.425Z,3.2
2018-12-17T18:00:09.913Z,3.2
2018-12-17T18:05:02.334Z,3.2
2018-12-17T18:10:02.685Z,3.2
2018-12-17T18:15:02.615Z,3.2
2018-12-17T18:20:05.190Z,3.2
2018-12-17T18:25:02.566Z,3.2
2018-12-17T18:30:02.430Z,3.2
2018-12-17T18:35:02.318Z,3.2
2018-12-17T18:40:07.781Z,3.1
2018-12-17T18:45:07.652Z,3.1
2018-12-17T18:50:12.708Z,3.1
2018-12-17T18:55:20.174Z,3.1
2018-12-17T19:00:03.112Z,3.1
2018-12-17T19:05:18.175Z,3.1
2018-12-17T19:10:02.535Z,3.1
2018-12-17T19:15:07.624Z,3.1
2018-12-17T19:20:07.631Z,3.1
2018-12-17T19:25:07.581Z,3.1
2018-12-17T19:30:02.567Z,3
2018-12-17T19:35:07.551Z,3
2018-12-17T19:40:05.441Z,2.9
2018-12-17T19:45:05.423Z,2.9
2018-12-17T19:50:04.841Z,2.9
2018-12-17T19:55:03.205Z,2.9
2018-12-17T20:00:03.184Z,3
2018-12-17T20:05:08.103Z,3
2018-12-17T20:10:02.459Z,3
2018-12-17T20:15:17.518Z,2.9
2018-12-17T20:20:02.460Z,3
2018-12-17T20:25:15.131Z,2.9
2018-12-17T20:30:03.056Z,3
2018-12-17T20:35:05.448Z,3
2018-12-17T20:40:05.381Z,3
2018-12-17T20:45:02.688Z,3
2018-12-17T20:50:02.588Z,3
2018-12-17T20:55:07.734Z,3
2018-12-17T21:00:07.735Z,3
2018-12-17T21:05:02.499Z,3
2018-12-17T21:10:02.849Z,3
2018-12-17T21:15:22.642Z,3
2018-12-17T21:20:07.736Z,2.9
2018-12-17T21:25:27.877Z,2.9
2018-12-17T21:30:12.881Z,2.9
2018-12-17T21:35:12.873Z,2.9
2018-12-17T21:40:04.835Z,2.9
2018-12-17T21:45:03.147Z,2.9
2018-12-17T21:50:18.295Z,2.9
2018-12-17T21:55:08.121Z,2.9
2018-12-17T22:00:03.236Z,2.9
2018-12-17T22:05:04.943Z,2.9
2018-12-17T22:10:05.837Z,2.9
2018-12-17T22:15:05.715Z,2.9
2018-12-17T22:20:12.818Z,2.9
2018-12-17T22:25:22.808Z,2.9
2018-12-17T22:30:02.727Z,2.9
2018-12-17T22:35:17.727Z,2.9
2018-12-17T22:40:05.559Z,2.9
2018-12-17T22:45:02.929Z,2.9
2018-12-17T22:50:02.824Z,2.9
2018-12-17T22:55:17.932Z,2.9
2018-12-17T23:00:20.600Z,2.9
2018-12-17T23:05:10.419Z,2.8
2018-12-17T23:10:07.830Z,2.8
2018-12-17T23:15:05.197Z,2.8
2018-12-17T23:20:05.694Z,2.8
2018-12-17T23:25:05.741Z,2.8
2018-12-17T23:30:05.269Z,2.8
2018-12-17T23:35:05.092Z,2.8
2018-12-17T23:40:05.015Z,2.8
2018-12-17T23:45:04.933Z,2.8
2018-12-17T23:50:05.362Z,2.8
2018-12-17T23:55:10.339Z,2.9
